createdAt,value
2022-11-08T00:03:00.376Z,25.20
2022-11-08T00:06:21.433Z,24.63
2022-11-08T00:09:42.145Z,25.03
2022-11-08T00:13:03.173Z,24.90
2022-11-08T00:16:08.744Z,25.70
2022-11-08T00:19:12.463Z,23.83
2022-11-08T00:22:16.764Z,24.20
2022-11-08T00:25:20.393Z,23.80
2022-11-08T00:28:24.023Z,25.20
2022-11-08T00:31:29.661Z,24.10
2022-11-08T00:34:34.463Z,24.70
2022-11-08T00:37:38.093Z,25.40
2022-11-08T00:40:41.697Z,24.63
2022-11-08T00:43:45.736Z,25.13
2022-11-08T00:46:50.927Z,24.73
2022-11-08T00:49:54.834Z,24.83
2022-11-08T00:52:58.479Z,25.00
2022-11-08T00:56:02.862Z,26.27
2022-11-08T00:59:06.787Z,27.20
2022-11-08T01:02:11.972Z,27.27
2022-11-08T01:05:15.905Z,25.53
2022-11-08T01:08:20.752Z,26.47
2022-11-08T01:11:26.287Z,26.70
2022-11-08T01:14:30.016Z,27.37
2022-11-08T01:17:35.229Z,27.47
2022-11-08T01:20:40.306Z,30.73
2022-11-08T01:24:00.805Z,28.80
2022-11-08T01:27:13.624Z,29.90
2022-11-08T01:30:17.623Z,29.67
2022-11-08T01:33:22.891Z,29.47
2022-11-08T01:36:28.453Z,28.87
2022-11-08T01:39:33.192Z,29.67
2022-11-08T01:42:37.153Z,27.87
2022-11-08T01:46:26.323Z,29.40
2022-11-08T01:49:39.805Z,27.77
2022-11-08T01:52:47.625Z,30.40
2022-11-08T01:55:51.956Z,28.77
2022-11-08T01:58:59.454Z,28.57
2022-11-08T02:02:03.800Z,27.20
2022-11-08T02:05:25.207Z,28.47
2022-11-08T02:08:33.046Z,29.00
2022-11-08T02:11:37.520Z,27.57
2022-11-08T02:14:41.130Z,29.90
2022-11-08T02:17:44.665Z,27.67
2022-11-08T02:20:56.720Z,27.80
2022-11-08T02:24:03.069Z,30.03
2022-11-08T02:27:06.609Z,28.60
2022-11-08T02:30:11.509Z,30.57
2022-11-08T02:33:19.444Z,30.47
2022-11-08T02:36:26.054Z,30.87
2022-11-08T02:39:33.086Z,32.70
2022-11-08T02:42:39.962Z,31.87
2022-11-08T02:45:43.616Z,32.90
2022-11-08T02:48:47.359Z,33.67
2022-11-08T02:51:54.094Z,33.83
2022-11-08T02:54:59.254Z,32.33
2022-11-08T02:58:03.233Z,34.43
2022-11-08T03:01:07.165Z,33.20
2022-11-08T03:04:10.889Z,34.17
2022-11-08T03:07:14.532Z,32.23
2022-11-08T03:10:19.843Z,31.60
2022-11-08T03:13:23.290Z,32.80
2022-11-08T03:16:27.113Z,31.60
2022-11-08T03:19:30.721Z,32.43
2022-11-08T03:22:34.382Z,33.20
2022-11-08T03:25:39.642Z,31.07
2022-11-08T03:28:43.981Z,31.40
2022-11-08T03:31:47.682Z,32.53
2022-11-08T03:34:51.246Z,33.00
2022-11-08T03:37:56.513Z,31.90
2022-11-08T03:41:01.529Z,32.03
2022-11-08T03:44:05.205Z,32.80
2022-11-08T03:47:08.726Z,32.23
2022-11-08T03:50:13.741Z,32.23
2022-11-08T03:53:17.412Z,32.73
2022-11-08T03:56:22.462Z,33.40
2022-11-08T03:59:26.145Z,33.13
2022-11-08T04:02:29.677Z,33.70
2022-11-08T04:05:33.807Z,33.00
2022-11-08T04:08:37.310Z,34.07
2022-11-08T04:11:59.482Z,32.00
2022-11-08T04:15:19.854Z,32.67
2022-11-08T04:18:41.357Z,33.03
2022-11-08T04:21:45.945Z,33.37
2022-11-08T04:24:49.642Z,33.13
2022-11-08T04:27:54.703Z,34.00
2022-11-08T04:31:00.091Z,34.13
2022-11-08T04:34:04.292Z,31.40
2022-11-08T04:37:07.878Z,32.37
2022-11-08T04:40:13.052Z,31.43
2022-11-08T04:43:18.296Z,32.03
2022-11-08T04:46:23.933Z,31.33
2022-11-08T04:49:27.702Z,34.20
2022-11-08T04:52:31.485Z,33.57
2022-11-08T04:55:37.272Z,32.70
2022-11-08T04:58:44.052Z,32.20
2022-11-08T05:01:47.761Z,33.40
2022-11-08T05:04:51.473Z,33.43
2022-11-08T05:07:55.722Z,34.53
2022-11-08T05:11:03.725Z,32.63
2022-11-08T05:14:08.912Z,33.77
2022-11-08T05:17:12.639Z,32.20
2022-11-08T05:20:33.611Z,32.57
2022-11-08T05:23:37.332Z,32.87
2022-11-08T05:26:43.834Z,31.33
2022-11-08T05:29:49.022Z,32.50
2022-11-08T05:32:53.342Z,32.60
2022-11-08T05:35:57.076Z,33.80
2022-11-08T05:39:00.911Z,34.00
2022-11-08T05:42:05.875Z,31.37
2022-11-08T05:45:11.802Z,30.43
2022-11-08T05:48:15.769Z,30.43
2022-11-08T05:51:23.202Z,32.03
2022-11-08T05:54:26.932Z,32.70
2022-11-08T05:57:30.644Z,32.40
2022-11-08T06:00:35.863Z,32.00
2022-11-08T06:03:40.171Z,30.47
2022-11-08T06:06:43.842Z,29.43
2022-11-08T06:09:47.563Z,29.50
2022-11-08T06:12:51.562Z,28.43
2022-11-08T06:15:56.745Z,28.60
2022-11-08T06:19:00.483Z,25.90
2022-11-08T06:22:04.233Z,25.40
2022-11-08T06:25:08.382Z,26.83
2022-11-08T06:28:13.382Z,32.17
2022-11-08T06:31:18.552Z,36.93
2022-11-08T06:34:22.370Z,36.60
2022-11-08T06:37:26.054Z,36.27
2022-11-08T06:40:29.775Z,38.77
2022-11-08T06:43:33.482Z,38.37
2022-11-08T06:46:38.542Z,41.63
2022-11-08T06:49:42.302Z,40.37
2022-11-08T06:52:45.962Z,42.03
2022-11-08T06:55:49.623Z,43.47
2022-11-08T06:58:53.334Z,42.37
2022-11-08T07:01:58.745Z,41.60
2022-11-08T07:05:02.452Z,38.60
2022-11-08T07:08:06.764Z,37.63
2022-11-08T07:11:11.241Z,32.67
2022-11-08T07:14:14.889Z,33.57
2022-11-08T07:17:20.092Z,31.53
2022-11-08T07:20:23.792Z,30.53
2022-11-08T07:23:27.513Z,29.77
2022-11-08T07:26:31.338Z,32.03
2022-11-08T07:29:35.103Z,31.50
2022-11-08T07:32:40.264Z,28.00
2022-11-08T07:35:47.976Z,28.50
2022-11-08T07:38:53.243Z,27.70
2022-11-08T07:41:57.103Z,30.47
2022-11-08T07:45:03.492Z,29.37
2022-11-08T07:48:14.720Z,29.83
2022-11-08T07:51:18.482Z,29.23
2022-11-08T07:54:22.212Z,29.43
2022-11-08T07:57:25.972Z,28.53
2022-11-08T08:00:29.734Z,30.10
2022-11-08T08:03:35.207Z,32.60
2022-11-08T08:06:38.902Z,32.53
2022-11-08T08:09:42.623Z,29.20
2022-11-08T08:12:47.573Z,30.90
2022-11-08T08:15:51.382Z,33.57
2022-11-08T08:18:56.987Z,35.03
2022-11-08T08:22:04.092Z,35.07
2022-11-08T08:25:11.171Z,31.87
2022-11-08T08:28:15.182Z,29.40
2022-11-08T08:31:22.252Z,28.23
2022-11-08T08:34:27.315Z,28.73
2022-11-08T08:37:31.083Z,29.53
2022-11-08T08:40:35.162Z,30.50
2022-11-08T08:43:39.002Z,27.73
2022-11-08T08:46:42.672Z,28.23
2022-11-08T08:49:47.850Z,26.23
2022-11-08T08:52:51.611Z,26.23
2022-11-08T08:55:55.374Z,25.00
2022-11-08T09:02:22.783Z,22.60
2022-11-08T09:05:27.992Z,21.97
2022-11-08T09:08:32.093Z,23.23
2022-11-08T09:11:35.942Z,21.77
2022-11-08T09:14:39.694Z,20.50
2022-11-08T09:17:43.672Z,19.17
2022-11-08T09:20:48.982Z,19.98
2022-11-08T09:23:52.761Z,19.27
2022-11-08T09:26:56.462Z,17.55
2022-11-08T09:30:00.554Z,18.25
2022-11-08T09:33:04.399Z,17.80
2022-11-08T09:36:13.901Z,18.58
2022-11-08T09:39:17.802Z,19.55
2022-11-08T09:42:51.156Z,18.77
2022-11-08T09:45:57.589Z,21.10
2022-11-08T09:49:04.691Z,19.73
2022-11-08T09:52:15.499Z,21.08
2022-11-08T09:55:26.153Z,19.73
2022-11-08T09:58:36.092Z,21.10
2022-11-08T10:01:40.366Z,18.80
2022-11-08T10:04:44.352Z,21.52
2022-11-08T10:07:55.772Z,28.45
2022-11-08T10:11:27.941Z,21.17
2022-11-08T10:14:53.833Z,21.08
2022-11-08T10:18:17.101Z,20.17
2022-11-08T10:21:53.482Z,19.65
2022-11-08T10:25:02.684Z,20.92
2022-11-08T10:28:08.663Z,21.40
2022-11-08T10:31:14.752Z,20.63
2022-11-08T10:34:21.759Z,20.08
2022-11-08T10:37:28.452Z,20.13
2022-11-08T10:40:44.392Z,19.73
2022-11-08T10:43:53.670Z,20.73
2022-11-08T10:47:07.304Z,20.58
2022-11-08T10:50:17.358Z,21.63
2022-11-08T10:53:26.263Z,19.60
2022-11-08T10:56:34.205Z,20.25
2022-11-08T10:59:41.735Z,20.05
2022-11-08T11:02:46.732Z,19.88
2022-11-08T11:06:00.250Z,21.95
2022-11-08T11:09:06.610Z,19.98
2022-11-08T11:12:15.132Z,21.77
2022-11-08T11:15:19.512Z,21.25
2022-11-08T11:18:28.994Z,21.80
2022-11-08T11:21:37.922Z,21.52
2022-11-08T11:24:51.704Z,20.75
2022-11-08T11:28:00.094Z,22.05
2022-11-08T11:31:06.324Z,20.58
2022-11-08T11:34:37.553Z,19.85
2022-11-08T11:37:45.263Z,20.08
2022-11-08T11:40:50.099Z,20.13
2022-11-08T11:44:07.764Z,20.67
2022-11-08T11:47:18.953Z,20.55
2022-11-08T11:50:35.542Z,21.75
2022-11-08T11:53:44.616Z,21.15
2022-11-08T11:56:58.161Z,20.83
2022-11-08T12:00:07.246Z,20.77
2022-11-08T12:03:47.233Z,20.95
2022-11-08T12:07:04.904Z,21.80
2022-11-08T12:10:20.883Z,21.75
2022-11-08T12:13:31.204Z,21.00
2022-11-08T12:16:43.588Z,21.85
2022-11-08T12:20:07.478Z,20.83
2022-11-08T12:23:38.829Z,20.35
2022-11-08T12:26:52.558Z,20.40
2022-11-08T12:30:04.693Z,19.33
2022-11-08T12:33:33.778Z,20.15
2022-11-08T12:36:45.369Z,19.58
2022-11-08T12:39:56.310Z,19.90
2022-11-08T12:43:11.676Z,20.58
2022-11-08T12:46:18.688Z,20.38
2022-11-08T12:49:34.701Z,19.90
2022-11-08T12:52:53.069Z,21.67
2022-11-08T12:55:59.757Z,19.38
2022-11-08T12:59:06.059Z,22.40
2022-11-08T13:02:19.349Z,20.25
2022-11-08T13:05:28.607Z,20.58
2022-11-08T13:08:42.228Z,19.58
2022-11-08T13:11:53.948Z,20.48
2022-11-08T13:15:00.427Z,20.67
2022-11-08T13:18:34.508Z,20.02
2022-11-08T13:21:42.393Z,19.00
2022-11-08T13:24:46.216Z,19.98
2022-11-08T13:27:50.617Z,21.08
2022-11-08T13:31:02.728Z,20.25
2022-11-08T13:34:19.070Z,20.00
2022-11-08T13:37:38.685Z,19.73
2022-11-08T13:41:02.868Z,21.25
2022-11-08T13:44:45.128Z,20.77
2022-11-08T13:47:57.149Z,20.25
2022-11-08T13:51:30.739Z,20.27
2022-11-08T13:54:53.798Z,19.80
2022-11-08T13:58:00.397Z,20.20
2022-11-08T14:01:06.676Z,20.52
2022-11-08T14:04:26.288Z,20.63
2022-11-08T14:07:39.208Z,20.73
2022-11-08T14:11:05.267Z,21.45
2022-11-08T14:14:31.219Z,21.73
2022-11-08T14:17:47.070Z,23.33
2022-11-08T14:20:51.074Z,21.80
2022-11-08T14:23:55.178Z,21.77
2022-11-08T14:27:00.709Z,20.93
2022-11-08T14:30:06.209Z,21.77
2022-11-08T14:33:18.640Z,21.93
2022-11-08T14:36:24.230Z,21.33
2022-11-08T14:39:31.568Z,20.07
2022-11-08T14:42:36.847Z,21.10
2022-11-08T14:45:43.959Z,22.73
2022-11-08T14:48:51.697Z,20.90
2022-11-08T14:52:16.146Z,22.17
2022-11-08T14:55:25.355Z,21.63
2022-11-08T14:58:31.547Z,20.30
2022-11-08T15:01:36.805Z,20.17
2022-11-08T15:04:41.891Z,20.20
2022-11-08T15:07:48.123Z,22.13
2022-11-08T15:10:58.402Z,22.67
2022-11-08T15:14:06.727Z,21.73
2022-11-08T15:17:35.622Z,21.50
2022-11-08T15:20:39.582Z,21.60
2022-11-08T15:23:44.903Z,23.10
2022-11-08T15:27:16.022Z,23.37
2022-11-08T15:30:22.982Z,23.13
2022-11-08T15:33:28.928Z,22.50
2022-11-08T15:36:36.083Z,23.13
2022-11-08T15:39:41.934Z,21.17
2022-11-08T15:42:47.596Z,22.07
2022-11-08T15:45:55.832Z,20.37
2022-11-08T15:49:00.832Z,20.17
2022-11-08T15:52:05.724Z,21.13
2022-11-08T15:55:10.035Z,20.90
2022-11-08T15:58:17.628Z,19.20
2022-11-08T16:01:23.341Z,21.37
2022-11-08T16:04:28.638Z,20.67
2022-11-08T16:07:32.443Z,19.77
2022-11-08T16:10:40.283Z,20.00
2022-11-08T16:13:44.135Z,19.47
2022-11-08T16:16:49.293Z,20.20
2022-11-08T16:19:52.983Z,20.37
2022-11-08T16:22:57.353Z,21.23
2022-11-08T16:26:03.453Z,20.53
2022-11-08T16:29:07.183Z,28.07
2022-11-08T16:32:12.374Z,22.87
2022-11-08T16:35:16.553Z,23.00
2022-11-08T16:38:28.545Z,21.13
2022-11-08T16:41:32.536Z,22.90
2022-11-08T16:44:40.941Z,21.80
2022-11-08T16:47:48.962Z,20.80
2022-11-08T16:50:53.303Z,21.73
2022-11-08T16:53:57.243Z,22.33
2022-11-08T16:57:28.519Z,21.43
2022-11-08T17:00:26.522Z,22.90
2022-11-08T17:03:31.854Z,22.07
2022-11-08T17:06:35.732Z,22.70
2022-11-08T17:09:39.364Z,23.33
2022-11-08T17:12:43.833Z,24.27
2022-11-08T17:15:49.396Z,24.77
2022-11-08T17:18:54.855Z,24.13
2022-11-08T17:21:59.643Z,25.23
2022-11-08T17:25:03.853Z,25.23
2022-11-08T17:28:07.907Z,24.50
2022-11-08T17:31:13.493Z,24.20
2022-11-08T17:34:18.882Z,24.80
2022-11-08T17:37:22.602Z,25.00
2022-11-08T17:40:26.683Z,25.30
2022-11-08T17:43:33.536Z,23.50
2022-11-08T17:46:37.523Z,25.13
2022-11-08T17:49:44.037Z,26.87
2022-11-08T17:52:47.953Z,26.53
2022-11-08T17:55:55.749Z,26.30
2022-11-08T17:58:59.573Z,26.23
2022-11-08T18:02:03.579Z,26.10
2022-11-08T18:05:09.674Z,25.80
2022-11-08T18:08:13.523Z,25.33
2022-11-08T18:11:17.274Z,26.03
2022-11-08T18:14:28.016Z,28.27
2022-11-08T18:17:32.230Z,35.33
2022-11-08T18:20:40.004Z,30.87
2022-11-08T18:23:44.420Z,30.53
2022-11-08T18:26:48.244Z,31.43
2022-11-08T18:29:52.013Z,31.80
2022-11-08T18:32:55.924Z,28.27
2022-11-08T18:36:06.314Z,27.17
2022-11-08T18:39:11.321Z,27.33
2022-11-08T18:42:17.842Z,28.50
2022-11-08T18:45:21.516Z,27.83
2022-11-08T18:48:25.253Z,28.77
2022-11-08T18:51:30.588Z,29.33
2022-11-08T18:54:37.056Z,29.10
2022-11-08T18:57:40.985Z,30.97
2022-11-08T19:00:45.904Z,32.03
2022-11-08T19:03:49.514Z,34.97
2022-11-08T19:06:55.113Z,33.73
2022-11-08T19:09:58.864Z,34.33
2022-11-08T19:13:02.583Z,34.00
2022-11-08T19:16:09.453Z,34.70
2022-11-08T19:19:13.603Z,37.77
2022-11-08T19:22:18.864Z,37.23
2022-11-08T19:25:22.554Z,37.50
2022-11-08T19:28:30.356Z,40.33
2022-11-08T19:31:36.684Z,41.73
2022-11-08T19:34:41.457Z,43.03
2022-11-08T19:37:46.685Z,40.43
2022-11-08T19:40:50.484Z,39.67
2022-11-08T19:43:55.269Z,42.00
2022-11-08T19:46:59.063Z,39.00
2022-11-08T19:50:02.793Z,42.00
2022-11-08T19:53:07.852Z,39.93
2022-11-08T19:56:13.203Z,38.70
2022-11-08T19:59:17.423Z,39.97
2022-11-08T20:02:21.203Z,40.93
2022-11-08T20:05:24.764Z,39.90
2022-11-08T20:08:30.012Z,42.57
2022-11-08T20:11:36.499Z,45.60
2022-11-08T20:14:40.255Z,40.93
2022-11-08T20:17:44.009Z,41.80
2022-11-08T20:20:47.747Z,47.60
2022-11-08T20:23:52.899Z,42.43
2022-11-08T20:26:57.187Z,43.00
2022-11-08T20:30:01.257Z,41.90
2022-11-08T20:33:05.275Z,40.13
2022-11-08T20:36:11.286Z,41.00
2022-11-08T20:39:17.128Z,43.60
2022-11-08T20:42:21.038Z,45.57
2022-11-08T20:45:24.977Z,47.87
2022-11-08T20:48:29.472Z,46.07
2022-11-08T20:51:33.919Z,46.60
2022-11-08T20:54:43.749Z,49.97
2022-11-08T20:57:48.007Z,50.07
2022-11-08T21:00:58.123Z,48.33
2022-11-08T21:04:02.553Z,46.80
2022-11-08T21:10:47.923Z,42.20
2022-11-08T21:13:51.954Z,43.80
2022-11-08T21:20:19.607Z,43.17
2022-11-08T21:23:23.318Z,44.00
2022-11-08T21:26:28.810Z,45.20
2022-11-08T21:29:32.587Z,41.87
2022-11-08T21:32:36.299Z,39.23
2022-11-08T21:35:40.558Z,36.17
2022-11-08T21:38:44.217Z,37.30
2022-11-08T21:41:49.318Z,36.83
2022-11-08T21:44:53.011Z,36.60
2022-11-08T21:47:56.757Z,35.87
2022-11-08T21:51:04.917Z,33.37
2022-11-08T21:54:08.835Z,34.97
2022-11-08T21:57:13.985Z,34.63
2022-11-08T22:00:18.347Z,35.10
2022-11-08T22:03:22.077Z,33.13
2022-11-08T22:06:26.011Z,32.70
2022-11-08T22:09:29.826Z,32.60
2022-11-08T22:12:35.529Z,34.63
2022-11-08T22:15:39.248Z,35.83
2022-11-08T22:22:07.388Z,38.60
2022-11-08T22:25:11.095Z,38.27
2022-11-08T22:28:16.425Z,37.70
2022-11-08T22:31:20.296Z,35.80
2022-11-08T22:34:23.980Z,35.33
2022-11-08T22:37:27.718Z,36.13
2022-11-08T22:40:31.407Z,36.07
2022-11-08T22:43:36.567Z,35.10
2022-11-08T22:46:40.367Z,34.77
2022-11-08T22:49:45.256Z,33.17
2022-11-08T22:52:49.949Z,31.37
2022-11-08T22:55:53.577Z,32.93
2022-11-08T22:58:58.648Z,31.77
2022-11-08T23:02:02.418Z,34.27
2022-11-08T23:05:06.446Z,33.73
2022-11-08T23:08:10.298Z,32.43
2022-11-08T23:11:31.407Z,32.17
2022-11-08T23:14:53.570Z,32.23
2022-11-08T23:17:57.677Z,32.23
2022-11-08T23:21:18.648Z,31.70
2022-11-08T23:24:22.268Z,33.17
2022-11-08T23:27:43.868Z,33.73
2022-11-08T23:31:06.320Z,33.23
2022-11-08T23:34:09.968Z,33.13
2022-11-08T23:37:13.770Z,33.30
2022-11-08T23:40:36.816Z,33.00
2022-11-08T23:43:57.907Z,33.80
2022-11-08T23:47:03.199Z,33.93
2022-11-08T23:50:07.874Z,32.97
2022-11-08T23:53:11.557Z,37.63
2022-11-08T23:56:23.631Z,32.87
2022-11-08T23:59:27.288Z,35.30
